Time;durP1;ratioP1;P1;durP2;ratioP2;P2;SDS_P1;SDS_P2;PMS_P1;PMS_P2;Temp;Humidity;BMP_temperature;BMP_pressure;BME280_temperature;BME280_humidity;BME280_pressure;Samples;Min_cycle;Max_cycle;Signal;HPM_P1;HPM_P2
2021/08/27 00:01:52;;;;;;;3.47;2.33;;;;;;;;;;5053532;28;20455;-57
2021/08/27 00:04:18;;;;;;;4.43;2.88;;;;;;;;;;5053743;28;20028;-57
2021/08/27 00:06:44;;;;;;;5.38;2.88;;;;;;;;;;5053290;28;20511;-56
2021/08/27 00:09:10;;;;;;;4.35;2.33;;;;;;;;;;5052855;28;20033;-57
2021/08/27 00:11:37;;;;;;;4.57;2.42;;;;;;;;;;5035174;28;20040;-56
2021/08/27 00:14:03;;;;;;;5.88;2.65;;;;;;;;;;5054101;28;20044;-57
2021/08/27 00:16:29;;;;;;;3.40;2.33;;;;;;;;;;5055816;28;20032;-57
2021/08/27 00:18:55;;;;;;;4.45;2.47;;;;;;;;;;5057431;28;20079;-53
2021/08/27 00:21:21;;;;;;;4.18;2.83;;;;;;;;;;5055728;28;20033;-56
2021/08/27 00:23:47;;;;;;;9.50;2.85;;;;;;;;;;5056523;28;20493;-55
2021/08/27 00:26:13;;;;;;;4.13;1.88;;;;;;;;;;5055586;28;20031;-57
2021/08/27 00:28:39;;;;;;;4.78;2.30;;;;;;;;;;5056511;28;20044;-57
2021/08/27 00:31:05;;;;;;;6.15;2.17;;;;;;;;;;5056927;28;20056;-57
2021/08/27 00:33:31;;;;;;;3.58;2.05;;;;;;;;;;5056941;28;20036;-56
2021/08/27 00:35:57;;;;;;;3.45;2.30;;;;;;;;;;5055527;28;20087;-57
2021/08/27 00:38:23;;;;;;;4.78;2.03;;;;;;;;;;5055584;28;20374;-57
2021/08/27 00:40:49;;;;;;;5.10;2.70;;;;;;;;;;5056313;28;20524;-57
2021/08/27 00:43:18;;;;;;;3.75;2.78;;;;;;;;;;5056444;28;20148;-56
2021/08/27 00:45:44;;;;;;;4.80;2.58;;;;;;;;;;5056090;28;20021;-57
2021/08/27 00:48:11;;;;;;;3.53;2.15;;;;;;;;;;5055112;28;20021;-57
2021/08/27 00:50:38;;;;;;;5.03;2.40;;;;;;;;;;5038831;28;20021;-56
2021/08/27 00:53:05;;;;;;;3.10;1.70;;;;;;;;;;5055058;28;20029;-57
2021/08/27 00:55:31;;;;;;;4.43;2.47;;;;;;;;;;5055210;28;20029;-57
2021/08/27 00:57:57;;;;;;;5.97;2.55;;;;;;;;;;5055686;28;20031;-57
2021/08/27 01:00:25;;;;;;;5.15;3.13;;;;;;;;;;5056056;28;20375;-57
2021/08/27 01:02:55;;;;;;;6.15;2.47;;;;;;;;;;5054471;28;20028;-57
2021/08/27 01:05:21;;;;;;;5.78;2.42;;;;;;;;;;5056541;28;20029;-55
2021/08/27 01:07:57;;;;;;;7.10;3.33;;;;;;;;;;5054742;28;20040;-57
2021/08/27 01:10:29;;;;;;;4.40;2.38;;;;;;;;;;5055922;28;20033;-56
2021/08/27 01:13:14;;;;;;;5.93;2.17;;;;;;;;;;5055482;28;20210;-57
2021/08/27 01:16:06;;;;;;;4.18;2.22;;;;;;;;;;5055785;28;20017;-57
2021/08/27 01:18:39;;;;;;;5.70;3.05;;;;;;;;;;5047297;28;20033;-56
2021/08/27 01:21:08;;;;;;;5.35;2.63;;;;;;;;;;5056536;28;20033;-57
2021/08/27 01:23:49;;;;;;;4.38;1.80;;;;;;;;;;5054726;28;20025;-56
2021/08/27 01:26:18;;;;;;;4.15;2.63;;;;;;;;;;5054915;28;20061;-57
2021/08/27 01:28:46;;;;;;;4.70;2.58;;;;;;;;;;5053874;28;20450;-57
2021/08/27 01:31:33;;;;;;;4.63;2.13;;;;;;;;;;5055564;28;20033;-57
2021/08/27 01:33:59;;;;;;;4.00;2.70;;;;;;;;;;5055302;28;20055;-56
2021/08/27 01:36:31;;;;;;;5.40;3.58;;;;;;;;;;5054991;28;20048;-57
2021/08/27 01:38:58;;;;;;;7.32;2.67;;;;;;;;;;5055757;28;20414;-57
2021/08/27 01:41:25;;;;;;;4.03;2.72;;;;;;;;;;5055980;28;20056;-55
2021/08/27 01:43:51;;;;;;;4.47;3.28;;;;;;;;;;5054669;28;20033;-57
2021/08/27 01:46:18;;;;;;;6.60;2.75;;;;;;;;;;5055281;28;20465;-57
2021/08/27 01:48:48;;;;;;;4.72;2.17;;;;;;;;;;5054856;28;20116;-57
2021/08/27 01:51:17;;;;;;;5.13;3.00;;;;;;;;;;5054150;28;20044;-57
2021/08/27 01:53:44;;;;;;;4.53;2.65;;;;;;;;;;5055162;28;20032;-57
2021/08/27 01:56:11;;;;;;;5.15;2.78;;;;;;;;;;5053544;28;20029;-57
2021/08/27 01:58:38;;;;;;;3.67;2.70;;;;;;;;;;5053575;28;20067;-57
2021/08/27 02:01:05;;;;;;;4.93;3.13;;;;;;;;;;5054883;28;20037;-57
2021/08/27 02:03:32;;;;;;;4.65;2.60;;;;;;;;;;5055507;28;20036;-56
2021/08/27 02:05:59;;;;;;;4.43;2.25;;;;;;;;;;5054874;28;20021;-57
2021/08/27 02:08:27;;;;;;;5.55;2.67;;;;;;;;;;5037347;28;20558;-57
2021/08/27 02:10:53;;;;;;;4.88;2.70;;;;;;;;;;5055292;28;20178;-56
2021/08/27 02:13:22;;;;;;;3.58;2.55;;;;;;;;;;5054986;28;20040;-56
2021/08/27 02:15:48;;;;;;;5.45;3.15;;;;;;;;;;5054652;28;20032;-57
2021/08/27 02:18:14;;;;;;;5.68;3.05;;;;;;;;;;5054694;28;20466;-57
2021/08/27 02:20:40;;;;;;;7.00;2.80;;;;;;;;;;5054872;28;20029;-55
2021/08/27 02:23:07;;;;;;;4.93;2.72;;;;;;;;;;5055244;28;20063;-57
2021/08/27 02:25:35;;;;;;;5.80;2.83;;;;;;;;;;5054446;28;20029;-57
2021/08/27 02:28:02;;;;;;;5.38;2.75;;;;;;;;;;5054662;28;20132;-57
2021/08/27 02:30:30;;;;;;;5.50;3.30;;;;;;;;;;5054934;28;20028;-58
2021/08/27 02:32:57;;;;;;;6.20;3.58;;;;;;;;;;5053719;28;20029;-56
2021/08/27 02:35:23;;;;;;;5.65;3.25;;;;;;;;;;5053621;28;20029;-57
2021/08/27 02:37:50;;;;;;;3.78;3.17;;;;;;;;;;5051891;28;20036;-56
2021/08/27 02:40:18;;;;;;;6.07;2.25;;;;;;;;;;5052925;28;20077;-57
2021/08/27 02:42:45;;;;;;;3.55;2.50;;;;;;;;;;5054952;28;20040;-56
2021/08/27 02:45:11;;;;;;;4.85;2.97;;;;;;;;;;5052981;28;20071;-57
2021/08/27 02:47:37;;;;;;;4.53;2.90;;;;;;;;;;5054129;28;20430;-57
2021/08/27 02:50:03;;;;;;;6.45;3.22;;;;;;;;;;5054529;28;20106;-57
2021/08/27 02:52:32;;;;;;;4.95;3.45;;;;;;;;;;5054498;28;20490;-57
2021/08/27 02:55:05;;;;;;;4.25;3.33;;;;;;;;;;5054061;28;20033;-55
2021/08/27 02:57:36;;;;;;;9.35;3.55;;;;;;;;;;5053573;28;20367;-57
2021/08/27 03:00:02;;;;;;;;;;;;;;;;;;5055030;28;20084;-57
2021/08/27 03:02:29;;;;;;;4.43;2.95;;;;;;;;;;5052887;28;20342;-57
2021/08/27 03:05:08;;;;;;;6.03;3.97;;;;;;;;;;5053424;28;20036;-57
2021/08/27 03:07:36;;;;;;;9.63;3.65;;;;;;;;;;5053479;28;20490;-57
2021/08/27 03:10:06;;;;;;;8.93;4.63;;;;;;;;;;5053760;28;20360;-57
2021/08/27 03:12:52;;;;;;;4.57;3.25;;;;;;;;;;5052227;28;20032;-57
2021/08/27 03:15:27;;;;;;;5.88;3.42;;;;;;;;;;5053269;28;20112;-57
2021/08/27 03:17:54;;;;;;;4.00;3.38;;;;;;;;;;5053613;28;20100;-55
2021/08/27 03:20:22;;;;;;;6.32;4.53;;;;;;;;;;5052422;28;20425;-57
2021/08/27 03:22:51;;;;;;;5.35;3.47;;;;;;;;;;5053913;28;20033;-55
2021/08/27 03:25:20;;;;;;;7.05;3.60;;;;;;;;;;5053568;28;20047;-55
2021/08/27 03:27:50;;;;;;;8.10;3.80;;;;;;;;;;5053589;28;20052;-55
2021/08/27 03:30:17;;;;;;;5.85;4.07;;;;;;;;;;5053580;28;20029;-57
2021/08/27 03:32:48;;;;;;;7.30;3.72;;;;;;;;;;5052689;28;20033;-57
2021/08/27 03:35:14;;;;;;;;;;;;;;;;;;5054401;28;20101;-55
2021/08/27 03:37:41;;;;;;;6.57;4.78;;;;;;;;;;5053897;28;19944;-57
2021/08/27 03:40:07;;;;;;;7.93;5.30;;;;;;;;;;5053593;28;20048;-56
2021/08/27 03:42:36;;;;;;;7.03;5.05;;;;;;;;;;5052784;28;20060;-57
2021/08/27 03:45:02;;;;;;;7.50;5.43;;;;;;;;;;5053469;28;20459;-55
2021/08/27 03:47:32;;;;;;;5.40;4.90;;;;;;;;;;5036565;28;20029;-57
2021/08/27 03:50:00;;;;;;;7.97;6.07;;;;;;;;;;5038280;28;20021;-56
2021/08/27 03:52:27;;;;;;;8.88;5.40;;;;;;;;;;5055973;28;20029;-55
2021/08/27 03:54:53;;;;;;;7.88;6.97;;;;;;;;;;5057382;28;20075;-56
2021/08/27 03:57:19;;;;;;;9.48;6.88;;;;;;;;;;5057679;28;20021;-57
2021/08/27 03:59:46;;;;;;;10.38;7.70;;;;;;;;;;5057604;28;20111;-57
2021/08/27 04:02:12;;;;;;;8.52;7.13;;;;;;;;;;5057314;28;20025;-59
2021/08/27 04:04:38;;;;;;;8.57;7.72;;;;;;;;;;5056542;28;20025;-56
2021/08/27 04:07:05;;;;;;;12.60;8.48;;;;;;;;;;5057235;28;20029;-57
2021/08/27 04:09:32;;;;;;;10.45;8.13;;;;;;;;;;5055923;28;20028;-57
2021/08/27 04:11:59;;;;;;;9.02;7.93;;;;;;;;;;5055999;28;20041;-56
2021/08/27 04:14:25;;;;;;;7.82;7.07;;;;;;;;;;5057001;28;20392;-57
2021/08/27 04:16:53;;;;;;;8.60;7.20;;;;;;;;;;5056953;28;20024;-57
2021/08/27 04:19:19;;;;;;;13.63;7.43;;;;;;;;;;5057005;28;20036;-57
2021/08/27 04:21:45;;;;;;;8.77;6.50;;;;;;;;;;5057403;28;20033;-56
2021/08/27 04:24:11;;;;;;;9.82;7.57;;;;;;;;;;5057150;28;20037;-57
2021/08/27 04:26:37;;;;;;;8.23;5.65;;;;;;;;;;5056393;28;20502;-55
2021/08/27 04:29:11;;;;;;;7.95;5.03;;;;;;;;;;5057221;28;20521;-53
2021/08/27 04:31:37;;;;;;;9.63;5.95;;;;;;;;;;5056827;28;20028;-55
2021/08/27 04:34:03;;;;;;;8.07;6.45;;;;;;;;;;5056679;28;20348;-56
2021/08/27 04:36:31;;;;;;;10.43;4.65;;;;;;;;;;5056322;28;20036;-55
2021/08/27 04:38:57;;;;;;;9.18;4.88;;;;;;;;;;5056601;28;20367;-57
2021/08/27 04:41:23;;;;;;;9.52;5.43;;;;;;;;;;5056508;28;20032;-56
2021/08/27 04:43:50;;;;;;;9.15;5.10;;;;;;;;;;5055850;28;20029;-56
2021/08/27 04:46:20;;;;;;;10.98;5.60;;;;;;;;;;5055325;28;20079;-57
2021/08/27 04:48:46;;;;;;;7.60;6.60;;;;;;;;;;5055075;28;20033;-57
2021/08/27 04:51:12;;;;;;;8.02;4.90;;;;;;;;;;5056346;28;20467;-57
2021/08/27 04:53:38;;;;;;;6.57;4.90;;;;;;;;;;5056571;28;20032;-53
2021/08/27 04:56:04;;;;;;;6.55;5.13;;;;;;;;;;5055007;28;20408;-57
2021/08/27 04:58:30;;;;;;;6.60;4.60;;;;;;;;;;5056524;28;20052;-55
2021/08/27 05:00:56;;;;;;;6.40;4.53;;;;;;;;;;5055108;28;20021;-55
2021/08/27 05:03:22;;;;;;;6.32;4.13;;;;;;;;;;5056225;28;20029;-56
2021/08/27 05:05:48;;;;;;;8.68;5.65;;;;;;;;;;5054841;28;20091;-57
2021/08/27 05:08:14;;;;;;;9.77;6.40;;;;;;;;;;5054780;28;20024;-55
2021/08/27 05:10:40;;;;;;;6.40;5.80;;;;;;;;;;5055780;28;20035;-57
2021/08/27 05:13:06;;;;;;;10.32;6.53;;;;;;;;;;5055666;28;20087;-55
2021/08/27 05:15:32;;;;;;;10.40;6.55;;;;;;;;;;5055780;28;20025;-55
2021/08/27 05:18:01;;;;;;;10.30;6.93;;;;;;;;;;5056178;28;20532;-56
2021/08/27 05:20:27;;;;;;;10.73;7.35;;;;;;;;;;5054344;28;20383;-57
2021/08/27 05:22:53;;;;;;;11.27;9.15;;;;;;;;;;5055485;28;20413;-57
2021/08/27 05:25:19;;;;;;;10.43;9.30;;;;;;;;;;5055882;28;20033;-56
2021/08/27 05:27:45;;;;;;;12.48;9.93;;;;;;;;;;5053940;28;20134;-56
2021/08/27 05:30:18;;;;;;;12.00;10.07;;;;;;;;;;5054532;28;20021;-57
2021/08/27 05:32:58;;;;;;;10.30;8.93;;;;;;;;;;5055768;28;20032;-57
2021/08/27 05:35:25;;;;;;;11.02;9.75;;;;;;;;;;5055927;28;20025;-57
2021/08/27 05:37:51;;;;;;;15.98;10.77;;;;;;;;;;5054175;28;20032;-58
2021/08/27 05:40:17;;;;;;;15.40;10.93;;;;;;;;;;5054319;28;20018;-58
2021/08/27 05:42:43;;;;;;;13.10;10.43;;;;;;;;;;5054411;28;20370;-56
2021/08/27 05:45:14;;;;;;;10.45;8.95;;;;;;;;;;5055233;28;20033;-56
2021/08/27 05:47:41;;;;;;;12.43;10.15;;;;;;;;;;5055305;28;20013;-57
2021/08/27 05:50:07;;;;;;;13.85;11.93;;;;;;;;;;5053701;28;20029;-57
2021/08/27 05:52:33;;;;;;;11.48;9.25;;;;;;;;;;5056044;28;20112;-57
2021/08/27 05:54:59;;;;;;;12.00;9.82;;;;;;;;;;5054885;28;20471;-54
2021/08/27 05:57:25;;;;;;;13.45;10.40;;;;;;;;;;5037411;28;20370;-57
2021/08/27 05:59:51;;;;;;;12.20;8.85;;;;;;;;;;5055158;28;20028;-57
2021/08/27 06:02:19;;;;;;;12.48;9.63;;;;;;;;;;5055277;28;20374;-57
2021/08/27 06:04:45;;;;;;;12.50;9.27;;;;;;;;;;5054474;28;20029;-56
2021/08/27 06:07:12;;;;;;;13.25;8.93;;;;;;;;;;5054941;28;20028;-58
2021/08/27 06:09:41;;;;;;;8.90;7.70;;;;;;;;;;5054591;28;20021;-56
2021/08/27 06:12:08;;;;;;;10.52;7.93;;;;;;;;;;5054052;28;20078;-57
2021/08/27 06:14:37;;;;;;;8.65;7.65;;;;;;;;;;5054409;28;20475;-57
2021/08/27 06:17:03;;;;;;;13.02;8.55;;;;;;;;;;5054726;28;20021;-57
2021/08/27 06:19:29;;;;;;;11.23;8.20;;;;;;;;;;5053661;28;20029;-57
2021/08/27 06:21:57;;;;;;;9.38;6.80;;;;;;;;;;5054590;28;20035;-55
2021/08/27 06:24:26;;;;;;;8.68;6.65;;;;;;;;;;5053622;28;20025;-57
2021/08/27 06:26:56;;;;;;;7.80;6.53;;;;;;;;;;5054566;28;20375;-56
2021/08/27 06:29:22;;;;;;;14.05;6.53;;;;;;;;;;5055174;28;20136;-58
2021/08/27 06:31:54;;;;;;;8.13;6.25;;;;;;;;;;5054919;28;20033;-57
2021/08/27 06:34:20;;;;;;;6.95;5.53;;;;;;;;;;5054920;28;20025;-58
2021/08/27 06:36:46;;;;;;;6.07;5.47;;;;;;;;;;5054417;28;20036;-56
2021/08/27 06:39:12;;;;;;;7.88;4.72;;;;;;;;;;5054021;28;20029;-55
2021/08/27 06:41:38;;;;;;;4.97;4.07;;;;;;;;;;5053524;28;20028;-58
2021/08/27 06:44:04;;;;;;;5.47;4.50;;;;;;;;;;5054181;28;20044;-57
2021/08/27 06:46:30;;;;;;;5.20;4.70;;;;;;;;;;5054221;28;20025;-55
2021/08/27 06:48:57;;;;;;;12.15;5.93;;;;;;;;;;5054146;28;20043;-55
2021/08/27 06:51:23;;;;;;;8.55;5.20;;;;;;;;;;5054665;28;20120;-57
2021/08/27 06:53:53;;;;;;;5.80;4.88;;;;;;;;;;5054402;28;20057;-58
2021/08/27 06:56:20;;;;;;;5.63;3.95;;;;;;;;;;5053099;28;20067;-57
2021/08/27 06:58:46;;;;;;;5.45;4.63;;;;;;;;;;5052720;28;20386;-57
2021/08/27 07:01:12;;;;;;;5.45;4.30;;;;;;;;;;5054168;28;20513;-57
2021/08/27 07:03:38;;;;;;;10.70;5.65;;;;;;;;;;5053733;28;20025;-57
2021/08/27 07:06:04;;;;;;;7.20;4.93;;;;;;;;;;5054017;28;20348;-56
2021/08/27 07:08:30;;;;;;;6.43;4.00;;;;;;;;;;5053939;28;20036;-57
2021/08/27 07:10:56;;;;;;;5.32;4.22;;;;;;;;;;5053920;28;20032;-57
2021/08/27 07:13:22;;;;;;;6.22;3.10;;;;;;;;;;5054192;28;20029;-55
2021/08/27 07:15:49;;;;;;;7.30;4.28;;;;;;;;;;5052474;28;20478;-57
2021/08/27 07:18:15;;;;;;;5.95;3.88;;;;;;;;;;5052442;28;20083;-57
2021/08/27 07:20:41;;;;;;;5.93;3.88;;;;;;;;;;5054032;28;20051;-58
2021/08/27 07:23:09;;;;;;;7.90;4.53;;;;;;;;;;5053013;28;20116;-56
2021/08/27 07:25:36;;;;;;;3.78;3.22;;;;;;;;;;5053310;28;20033;-57
2021/08/27 07:28:02;;;;;;;4.45;3.40;;;;;;;;;;5053920;28;20053;-55
2021/08/27 07:30:28;;;;;;;4.05;3.00;;;;;;;;;;5054083;28;20033;-55
2021/08/27 07:32:54;;;;;;;6.55;4.05;;;;;;;;;;5054157;28;20033;-56
2021/08/27 07:35:20;;;;;;;6.85;3.40;;;;;;;;;;5052814;28;20024;-56
2021/08/27 07:37:46;;;;;;;3.78;3.03;;;;;;;;;;5054112;28;20116;-56
2021/08/27 07:40:14;;;;;;;2.90;2.17;;;;;;;;;;5053821;28;20422;-56
2021/08/27 07:42:40;;;;;;;4.75;2.67;;;;;;;;;;5053462;28;20032;-57
2021/08/27 07:45:06;;;;;;;6.95;3.20;;;;;;;;;;5052836;28;20048;-56
2021/08/27 07:47:32;;;;;;;3.28;2.53;;;;;;;;;;5053242;28;20486;-55
2021/08/27 07:50:02;;;;;;;5.47;2.47;;;;;;;;;;5052229;28;20021;-56
2021/08/27 07:52:31;;;;;;;5.43;1.92;;;;;;;;;;5052547;28;20581;-57
2021/08/27 07:55:00;;;;;;;3.42;1.77;;;;;;;;;;5053558;28;20500;-57
2021/08/27 07:57:26;;;;;;;7.45;2.78;;;;;;;;;;5053302;28;20032;-56
2021/08/27 07:59:52;;;;;;;4.72;2.58;;;;;;;;;;5053394;28;20459;-56
2021/08/27 08:02:18;;;;;;;4.82;1.83;;;;;;;;;;5053837;28;20029;-57
2021/08/27 08:04:49;;;;;;;7.60;2.33;;;;;;;;;;5053070;28;20036;-57
2021/08/27 08:07:15;;;;;;;2.55;1.77;;;;;;;;;;5053426;28;20104;-56
2021/08/27 08:09:44;;;;;;;4.68;1.60;;;;;;;;;;5053618;28;20029;-57
2021/08/27 08:12:10;;;;;;;3.47;1.65;;;;;;;;;;5053427;28;20082;-57
2021/08/27 08:14:36;;;;;;;4.00;1.65;;;;;;;;;;5052580;28;20021;-56
2021/08/27 08:17:02;;;;;;;3.67;2.15;;;;;;;;;;5054057;28;20328;-57
2021/08/27 08:19:28;;;;;;;3.03;1.40;;;;;;;;;;5053450;28;20029;-55
2021/08/27 08:21:54;;;;;;;2.25;1.35;;;;;;;;;;5053036;28;20086;-56
2021/08/27 08:24:20;;;;;;;3.97;2.20;;;;;;;;;;5053195;28;20445;-55
2021/08/27 08:26:46;;;;;;;2.83;1.20;;;;;;;;;;5053018;28;20082;-56
2021/08/27 08:29:12;;;;;;;1.38;0.80;;;;;;;;;;5053151;28;20057;-57
2021/08/27 08:31:38;;;;;;;1.83;1.23;;;;;;;;;;5053307;28;20029;-55
2021/08/27 08:34:04;;;;;;;4.47;1.33;;;;;;;;;;5052576;28;20469;-56
2021/08/27 08:36:30;;;;;;;2.92;1.30;;;;;;;;;;5053573;28;20025;-54
2021/08/27 08:38:56;;;;;;;3.63;1.58;;;;;;;;;;5055042;28;20025;-54
2021/08/27 08:41:22;;;;;;;3.15;1.30;;;;;;;;;;5055824;28;20102;-56
2021/08/27 08:43:49;;;;;;;2.25;0.85;;;;;;;;;;5057364;28;20363;-55
2021/08/27 08:46:16;;;;;;;4.90;1.60;;;;;;;;;;5056384;28;20056;-57
2021/08/27 08:48:49;;;;;;;3.75;1.35;;;;;;;;;;5056461;28;20024;-56
2021/08/27 08:51:18;;;;;;;3.95;1.13;;;;;;;;;;5056318;28;20517;-57
2021/08/27 08:53:45;;;;;;;2.35;0.85;;;;;;;;;;5056377;28;20128;-56
2021/08/27 08:56:12;;;;;;;2.85;1.58;;;;;;;;;;5055977;28;20386;-57
2021/08/27 08:58:38;;;;;;;1.77;0.85;;;;;;;;;;5056241;28;20053;-57
2021/08/27 09:01:05;;;;;;;4.90;1.38;;;;;;;;;;5056482;28;20029;-56
2021/08/27 09:03:31;;;;;;;4.15;1.10;;;;;;;;;;5055508;28;20427;-57
2021/08/27 09:05:57;;;;;;;1.92;0.98;;;;;;;;;;5056110;28;20029;-57
2021/08/27 09:08:33;;;;;;;2.88;1.33;;;;;;;;;;5056344;28;20360;-55
2021/08/27 09:11:00;;;;;;;2.45;1.30;;;;;;;;;;5055470;28;20025;-55
2021/08/27 09:13:31;;;;;;;4.85;1.20;;;;;;;;;;5055713;28;20025;-57
2021/08/27 09:15:56;;;;;;;;;;;;;;;;;;5056402;28;20036;-57
2021/08/27 09:18:22;;;;;;;1.42;0.77;;;;;;;;;;5056088;28;19905;-57
2021/08/27 09:20:48;;;;;;;2.75;1.35;;;;;;;;;;5054331;28;20363;-56
2021/08/27 09:23:18;;;;;;;1.80;1.17;;;;;;;;;;5038043;28;20036;-57
2021/08/27 09:25:44;;;;;;;2.60;1.17;;;;;;;;;;5055449;28;20094;-56
2021/08/27 09:28:16;;;;;;;2.65;1.30;;;;;;;;;;5055418;28;20041;-56
2021/08/27 09:30:53;;;;;;;2.30;1.20;;;;;;;;;;5054324;28;20025;-56
2021/08/27 09:33:23;;;;;;;5.20;1.38;;;;;;;;;;5055927;28;20063;-56
2021/08/27 09:36:00;;;;;;;2.38;1.15;;;;;;;;;;5055877;28;20021;-56
2021/08/27 09:38:30;;;;;;;3.38;1.42;;;;;;;;;;5055524;28;20104;-55
2021/08/27 09:40:59;;;;;;;2.70;1.23;;;;;;;;;;5056032;28;20355;-56
2021/08/27 09:43:26;;;;;;;2.90;1.40;;;;;;;;;;5055828;28;20474;-56
2021/08/27 09:45:57;;;;;;;3.17;0.80;;;;;;;;;;5054146;28;20256;-56
2021/08/27 09:48:24;;;;;;;3.15;1.15;;;;;;;;;;5055534;28;20340;-57
2021/08/27 09:50:50;;;;;;;3.38;1.35;;;;;;;;;;5054073;28;20056;-57
2021/08/27 09:53:17;;;;;;;2.28;1.25;;;;;;;;;;5054036;28;20025;-55
2021/08/27 09:56:00;;;;;;;2.88;1.33;;;;;;;;;;5055206;28;20474;-56
2021/08/27 09:58:26;;;;;;;1.98;1.08;;;;;;;;;;5055260;28;20021;-56
2021/08/27 10:01:03;;;;;;;2.05;1.00;;;;;;;;;;5055204;28;20021;-57
2021/08/27 10:03:29;;;;;;;2.97;0.90;;;;;;;;;;5055342;28;20485;-57
2021/08/27 10:05:55;;;;;;;3.88;1.35;;;;;;;;;;5055058;28;20421;-57
2021/08/27 10:08:23;;;;;;;7.15;1.77;;;;;;;;;;5053977;28;20017;-58
2021/08/27 10:10:50;;;;;;;2.33;1.10;;;;;;;;;;5053583;28;20024;-58
2021/08/27 10:13:40;;;;;;;2.17;1.20;;;;;;;;;;5054950;28;20055;-58
2021/08/27 10:16:15;;;;;;;2.85;1.40;;;;;;;;;;5054198;28;20029;-57
2021/08/27 10:18:41;;;;;;;3.97;1.52;;;;;;;;;;5035911;28;20029;-56
2021/08/27 10:21:28;;;;;;;5.20;1.70;;;;;;;;;;5055206;28;20024;-56
2021/08/27 10:23:54;;;;;;;3.00;1.60;;;;;;;;;;5055144;28;20032;-58
2021/08/27 10:26:28;;;;;;;2.55;1.20;;;;;;;;;;5054044;28;20104;-57
2021/08/27 10:28:54;;;;;;;3.92;1.83;;;;;;;;;;5054898;28;20053;-57
2021/08/27 10:31:41;;;;;;;5.53;1.65;;;;;;;;;;5054764;28;20025;-58
2021/08/27 10:34:21;;;;;;;4.00;1.67;;;;;;;;;;5055425;28;20028;-58
2021/08/27 10:36:48;;;;;;;3.63;2.35;;;;;;;;;;5053176;28;20498;-57
2021/08/27 10:39:37;;;;;;;5.05;2.63;;;;;;;;;;5054118;28;20489;-56
2021/08/27 10:42:38;;;;;;;3.33;2.00;;;;;;;;;;5055206;28;20036;-57
2021/08/27 10:45:26;;;;;;;2.13;1.23;;;;;;;;;;5015697;28;20430;-58
2021/08/27 10:48:23;;;;;;;4.10;1.73;;;;;;;;;;5052781;28;20529;-56
2021/08/27 10:51:03;;;;;;;4.10;1.48;;;;;;;;;;5053612;28;20029;-55
2021/08/27 10:53:34;;;;;;;4.43;1.65;;;;;;;;;;5051489;28;20121;-57
2021/08/27 10:56:07;;;;;;;4.18;1.70;;;;;;;;;;5054142;28;20028;-57
2021/08/27 10:58:40;;;;;;;3.03;1.73;;;;;;;;;;5053378;28;20475;-55
2021/08/27 11:01:06;;;;;;;4.15;1.55;;;;;;;;;;5054257;28;20028;-56
2021/08/27 11:03:51;;;;;;;4.68;2.15;;;;;;;;;;5054324;28;20037;-56
2021/08/27 11:06:17;;;;;;;3.63;1.55;;;;;;;;;;5052985;28;20071;-56
2021/08/27 11:08:44;;;;;;;3.33;1.67;;;;;;;;;;5053251;28;20021;-55
2021/08/27 11:11:16;;;;;;;4.65;2.20;;;;;;;;;;5052594;28;20025;-56
2021/08/27 11:13:42;;;;;;;7.35;1.98;;;;;;;;;;5053907;28;20027;-56
2021/08/27 11:16:23;;;;;;;2.45;1.60;;;;;;;;;;5053124;28;20119;-54
2021/08/27 11:18:50;;;;;;;2.13;1.40;;;;;;;;;;5054539;28;20021;-55
2021/08/27 11:21:53;;;;;;;3.70;1.67;;;;;;;;;;5053773;28;20025;-56
2021/08/27 11:24:23;;;;;;;2.33;1.23;;;;;;;;;;5042344;28;20537;-56
2021/08/27 11:26:55;;;;;;;3.15;1.35;;;;;;;;;;5053881;28;20036;-57
2021/08/27 11:29:28;;;;;;;3.75;1.98;;;;;;;;;;5053857;28;20049;-57
2021/08/27 11:31:54;;;;;;;4.05;1.30;;;;;;;;;;5053505;28;20029;-57
2021/08/27 11:34:40;;;;;;;3.47;1.33;;;;;;;;;;5054185;28;20056;-56
2021/08/27 11:37:06;;;;;;;3.97;2.28;;;;;;;;;;5053974;28;20025;-56
2021/08/27 11:39:32;;;;;;;3.03;2.03;;;;;;;;;;5053407;28;20032;-56
2021/08/27 11:41:58;;;;;;;6.85;1.60;;;;;;;;;;5054077;28;20051;-55
2021/08/27 11:44:24;;;;;;;5.78;1.50;;;;;;;;;;5053936;28;20086;-56
2021/08/27 11:46:51;;;;;;;3.15;1.50;;;;;;;;;;5054314;28;20021;-56
2021/08/27 11:49:20;;;;;;;3.80;2.05;;;;;;;;;;5053485;28;20025;-56
2021/08/27 11:52:07;;;;;;;2.03;0.93;;;;;;;;;;5053866;28;20033;-57
2021/08/27 11:54:33;;;;;;;3.78;1.40;;;;;;;;;;5049283;28;20472;-57
2021/08/27 11:56:59;;;;;;;4.72;2.40;;;;;;;;;;5052686;28;20029;-57
2021/08/27 11:59:26;;;;;;;3.47;2.00;;;;;;;;;;5053575;28;20086;-57
2021/08/27 12:01:52;;;;;;;6.78;2.28;;;;;;;;;;5053869;28;20033;-57
2021/08/27 12:04:30;;;;;;;2.42;1.27;;;;;;;;;;5054174;28;20231;-56
2021/08/27 12:07:06;;;;;;;3.22;1.40;;;;;;;;;;5053669;28;20021;-55
2021/08/27 12:09:32;;;;;;;1.98;1.05;;;;;;;;;;5053214;28;20497;-57
2021/08/27 12:11:58;;;;;;;2.95;1.75;;;;;;;;;;5057112;28;20036;-55
2021/08/27 12:14:44;;;;;;;3.90;1.75;;;;;;;;;;5055981;28;20029;-57
2021/08/27 12:17:10;;;;;;;3.92;1.42;;;;;;;;;;5057646;28;20102;-56
2021/08/27 12:19:37;;;;;;;1.52;1.10;;;;;;;;;;5056089;28;20025;-56
2021/08/27 12:22:06;;;;;;;2.80;1.15;;;;;;;;;;5057165;28;20120;-57
2021/08/27 12:24:35;;;;;;;4.13;1.48;;;;;;;;;;5055428;28;20033;-57
2021/08/27 12:27:01;;;;;;;3.10;1.30;;;;;;;;;;5056663;28;20029;-55
2021/08/27 12:29:27;;;;;;;3.25;1.13;;;;;;;;;;5055355;28;20071;-57
2021/08/27 12:31:53;;;;;;;2.42;1.13;;;;;;;;;;5056154;28;20049;-57
2021/08/27 12:34:19;;;;;;;3.92;1.98;;;;;;;;;;5056749;28;20102;-57
2021/08/27 12:36:46;;;;;;;2.70;1.30;;;;;;;;;;5056701;28;20025;-56
2021/08/27 12:39:15;;;;;;;4.82;1.27;;;;;;;;;;5057456;28;20360;-58
2021/08/27 12:41:41;;;;;;;6.75;1.52;;;;;;;;;;5056202;28;20101;-58
2021/08/27 12:44:11;;;;;;;2.05;1.25;;;;;;;;;;5056301;28;20033;-57
2021/08/27 12:46:39;;;;;;;1.60;1.02;;;;;;;;;;5056656;28;20032;-58
2021/08/27 12:49:22;;;;;;;1.90;1.10;;;;;;;;;;5056544;28;20024;-58
2021/08/27 12:51:57;;;;;;;5.25;1.58;;;;;;;;;;5055259;28;20032;-57
2021/08/27 12:54:23;;;;;;;3.90;1.52;;;;;;;;;;5055218;28;20032;-58
2021/08/27 12:57:04;;;;;;;3.70;1.73;;;;;;;;;;5056144;28;20033;-59
2021/08/27 12:59:30;;;;;;;4.28;1.85;;;;;;;;;;5056103;28;20497;-58
2021/08/27 13:01:57;;;;;;;1.83;1.17;;;;;;;;;;5056749;28;20074;-56
2021/08/27 13:04:40;;;;;;;1.17;0.70;;;;;;;;;;5056029;28;20064;-55
2021/08/27 13:07:20;;;;;;;2.50;1.45;;;;;;;;;;5056770;28;20154;-56
2021/08/27 13:09:46;;;;;;;2.90;1.40;;;;;;;;;;5055246;28;20025;-55
2021/08/27 13:12:12;;;;;;;2.90;1.25;;;;;;;;;;5054689;28;20474;-56
2021/08/27 13:14:40;;;;;;;2.15;1.02;;;;;;;;;;5056383;28;20052;-54
2021/08/27 13:17:10;;;;;;;1.92;0.90;;;;;;;;;;5055921;28;20021;-56
2021/08/27 13:19:45;;;;;;;2.25;1.00;;;;;;;;;;5056719;28;20044;-56
2021/08/27 13:22:16;;;;;;;2.75;0.98;;;;;;;;;;5055626;28;20036;-56
2021/08/27 13:24:42;;;;;;;1.77;1.10;;;;;;;;;;5056172;28;20021;-55
2021/08/27 13:27:08;;;;;;;3.20;0.80;;;;;;;;;;5055819;28;20056;-56
2021/08/27 13:29:34;;;;;;;2.83;1.42;;;;;;;;;;5055216;28;20130;-56
2021/08/27 13:32:00;;;;;;;1.38;0.80;;;;;;;;;;5053974;28;20059;-55
2021/08/27 13:34:26;;;;;;;1.58;0.90;;;;;;;;;;5054451;28;20032;-56
2021/08/27 13:36:52;;;;;;;1.73;0.95;;;;;;;;;;5055665;28;20017;-56
2021/08/27 13:39:21;;;;;;;1.27;0.60;;;;;;;;;;5055817;28;20374;-55
2021/08/27 13:41:49;;;;;;;8.55;0.90;;;;;;;;;;5055433;28;20375;-56
2021/08/27 13:44:16;;;;;;;3.05;0.90;;;;;;;;;;5056081;28;20359;-58
2021/08/27 13:46:41;;;;;;;2.03;0.93;;;;;;;;;;5055441;28;20079;-57
2021/08/27 13:49:08;;;;;;;2.65;0.73;;;;;;;;;;5055363;28;20025;-56
2021/08/27 13:51:34;;;;;;;2.40;0.57;;;;;;;;;;5055356;28;20047;-57
2021/08/27 13:54:04;;;;;;;1.50;0.88;;;;;;;;;;5055327;28;20071;-57
2021/08/27 13:56:31;;;;;;;4.90;1.27;;;;;;;;;;5055204;28;20505;-57
2021/08/27 13:58:58;;;;;;;2.03;1.05;;;;;;;;;;5055475;28;20344;-57
2021/08/27 14:01:25;;;;;;;3.20;1.23;;;;;;;;;;5055259;28;20371;-56
2021/08/27 14:03:51;;;;;;;1.95;0.93;;;;;;;;;;5055652;28;20033;-57
2021/08/27 14:06:17;;;;;;;1.80;0.90;;;;;;;;;;5055359;28;20033;-58
2021/08/27 14:08:43;;;;;;;5.97;1.75;;;;;;;;;;5055355;28;20025;-55
2021/08/27 14:11:09;;;;;;;1.90;1.10;;;;;;;;;;5055369;28;20031;-57
2021/08/27 14:13:35;;;;;;;2.55;1.02;;;;;;;;;;5053584;28;20425;-57
2021/08/27 14:16:01;;;;;;;1.58;0.80;;;;;;;;;;5054726;28;20021;-55
2021/08/27 14:18:27;;;;;;;1.88;1.05;;;;;;;;;;5054844;28;20091;-57
2021/08/27 14:20:53;;;;;;;3.30;1.38;;;;;;;;;;5055123;28;20166;-57
2021/08/27 14:23:19;;;;;;;1.83;0.90;;;;;;;;;;5053850;28;20060;-58
2021/08/27 14:25:45;;;;;;;2.08;1.10;;;;;;;;;;5054456;28;20081;-57
2021/08/27 14:28:11;;;;;;;2.53;1.25;;;;;;;;;;5054366;28;20044;-57
2021/08/27 14:30:37;;;;;;;2.17;1.60;;;;;;;;;;5053251;28;20025;-57
2021/08/27 14:33:05;;;;;;;1.73;1.08;;;;;;;;;;5036722;28;20132;-57
2021/08/27 14:35:31;;;;;;;2.35;1.25;;;;;;;;;;5054251;28;20021;-57
2021/08/27 14:37:57;;;;;;;2.45;1.15;;;;;;;;;;5053075;28;20115;-57
2021/08/27 14:40:23;;;;;;;1.58;1.10;;;;;;;;;;5054267;28;20110;-57
2021/08/27 14:42:49;;;;;;;2.08;1.08;;;;;;;;;;5054725;28;20496;-58
2021/08/27 14:45:15;;;;;;;3.67;1.67;;;;;;;;;;5054241;28;20060;-55
2021/08/27 14:47:44;;;;;;;2.85;1.30;;;;;;;;;;5054078;28;20029;-56
2021/08/27 14:50:10;;;;;;;3.88;1.83;;;;;;;;;;5054171;28;20028;-57
2021/08/27 14:52:37;;;;;;;2.67;1.55;;;;;;;;;;5054485;28;20039;-57